sensor_id;sensor_type;location;lat;lon;timestamp;temperature;humidity
11559;DHT22;5835;42.930;25.178;2023-08-01T00:00:27;19.00;99.90
11559;DHT22;5835;42.930;25.178;2023-08-01T00:02:55;19.00;99.90
11559;DHT22;5835;42.930;25.178;2023-08-01T00:05:22;19.00;99.90
11559;DHT22;5835;42.930;25.178;2023-08-01T00:07:50;19.10;99.90
11559;DHT22;5835;42.930;25.178;2023-08-01T00:10:17;19.10;99.90
11559;DHT22;5835;42.930;25.178;2023-08-01T00:12:46;19.00;99.90
11559;DHT22;5835;42.930;25.178;2023-08-01T00:15:14;19.00;99.90
11559;DHT22;5835;42.930;25.178;2023-08-01T00:17:42;18.90;99.90
11559;DHT22;5835;42.930;25.178;2023-08-01T00:20:10;18.80;99.90
11559;DHT22;5835;42.930;25.178;2023-08-01T00:22:38;18.80;99.90
11559;DHT22;5835;42.930;25.178;2023-08-01T00:25:06;18.90;99.90
11559;DHT22;5835;42.930;25.178;2023-08-01T00:27:33;19.00;99.90
11559;DHT22;5835;42.930;25.178;2023-08-01T00:30:03;18.70;99.90
11559;DHT22;5835;42.930;25.178;2023-08-01T00:32:31;18.80;99.90
11559;DHT22;5835;42.930;25.178;2023-08-01T00:34:59;18.90;99.90
11559;DHT22;5835;42.930;25.178;2023-08-01T00:37:26;18.90;99.90
11559;DHT22;5835;42.930;25.178;2023-08-01T00:39:54;18.90;99.90
11559;DHT22;5835;42.930;25.178;2023-08-01T00:42:21;18.90;99.90
11559;DHT22;5835;42.930;25.178;2023-08-01T00:44:49;18.80;97.20
11559;DHT22;5835;42.930;25.178;2023-08-01T00:47:18;18.60;99.90
11559;DHT22;5835;42.930;25.178;2023-08-01T00:49:46;18.40;99.90
11559;DHT22;5835;42.930;25.178;2023-08-01T00:52:14;18.40;99.90
11559;DHT22;5835;42.930;25.178;2023-08-01T00:54:41;18.40;99.90
11559;DHT22;5835;42.930;25.178;2023-08-01T00:57:10;18.40;99.90
11559;DHT22;5835;42.930;25.178;2023-08-01T00:59:38;18.40;99.90
11559;DHT22;5835;42.930;25.178;2023-08-01T01:02:05;18.40;99.90
11559;DHT22;5835;42.930;25.178;2023-08-01T01:04:34;18.50;99.90
11559;DHT22;5835;42.930;25.178;2023-08-01T01:07:03;18.60;99.90
11559;DHT22;5835;42.930;25.178;2023-08-01T01:09:33;18.50;99.90
11559;DHT22;5835;42.930;25.178;2023-08-01T01:12:00;18.40;99.90
11559;DHT22;5835;42.930;25.178;2023-08-01T01:14:30;18.30;99.90
11559;DHT22;5835;42.930;25.178;2023-08-01T01:16:57;18.20;99.90
11559;DHT22;5835;42.930;25.178;2023-08-01T01:19:25;18.00;99.90
11559;DHT22;5835;42.930;25.178;2023-08-01T01:22:08;17.90;99.90
11559;DHT22;5835;42.930;25.178;2023-08-01T01:24:36;17.90;99.90
11559;DHT22;5835;42.930;25.178;2023-08-01T01:27:04;17.80;99.90
11559;DHT22;5835;42.930;25.178;2023-08-01T01:29:33;17.80;99.90
11559;DHT22;5835;42.930;25.178;2023-08-01T01:32:02;17.70;99.90
11559;DHT22;5835;42.930;25.178;2023-08-01T01:34:30;17.60;99.90
11559;DHT22;5835;42.930;25.178;2023-08-01T01:36:57;17.50;99.90
11559;DHT22;5835;42.930;25.178;2023-08-01T01:39:27;17.50;99.90
11559;DHT22;5835;42.930;25.178;2023-08-01T01:41:54;17.60;99.90
11559;DHT22;5835;42.930;25.178;2023-08-01T01:44:21;17.50;99.90
11559;DHT22;5835;42.930;25.178;2023-08-01T01:46:49;17.40;99.90
11559;DHT22;5835;42.930;25.178;2023-08-01T01:49:17;17.40;99.90
11559;DHT22;5835;42.930;25.178;2023-08-01T01:51:44;17.40;99.90
11559;DHT22;5835;42.930;25.178;2023-08-01T01:54:12;17.50;99.90
11559;DHT22;5835;42.930;25.178;2023-08-01T01:56:41;17.60;99.90
11559;DHT22;5835;42.930;25.178;2023-08-01T01:59:08;17.60;99.90
11559;DHT22;5835;42.930;25.178;2023-08-01T02:01:36;17.70;99.90
11559;DHT22;5835;42.930;25.178;2023-08-01T02:04:03;17.70;99.90
11559;DHT22;5835;42.930;25.178;2023-08-01T02:06:31;17.80;99.90
11559;DHT22;5835;42.930;25.178;2023-08-01T02:09:00;17.70;99.90
11559;DHT22;5835;42.930;25.178;2023-08-01T02:11:27;17.70;99.90
11559;DHT22;5835;42.930;25.178;2023-08-01T02:13:56;17.70;99.90
11559;DHT22;5835;42.930;25.178;2023-08-01T02:16:24;17.80;99.90
11559;DHT22;5835;42.930;25.178;2023-08-01T02:18:51;17.70;99.90
11559;DHT22;5835;42.930;25.178;2023-08-01T02:21:19;17.50;99.90
11559;DHT22;5835;42.930;25.178;2023-08-01T02:23:47;17.40;99.90
11559;DHT22;5835;42.930;25.178;2023-08-01T02:26:14;17.40;99.90
11559;DHT22;5835;42.930;25.178;2023-08-01T02:28:41;17.30;99.90
11559;DHT22;5835;42.930;25.178;2023-08-01T02:31:11;17.40;99.90
11559;DHT22;5835;42.930;25.178;2023-08-01T02:33:39;17.30;99.90
11559;DHT22;5835;42.930;25.178;2023-08-01T02:36:06;17.40;99.90
11559;DHT22;5835;42.930;25.178;2023-08-01T02:38:34;17.40;99.90
11559;DHT22;5835;42.930;25.178;2023-08-01T02:41:02;17.40;99.90
11559;DHT22;5835;42.930;25.178;2023-08-01T02:43:29;17.40;99.90
11559;DHT22;5835;42.930;25.178;2023-08-01T02:45:57;17.40;99.90
11559;DHT22;5835;42.930;25.178;2023-08-01T02:48:27;17.40;99.90
11559;DHT22;5835;42.930;25.178;2023-08-01T02:50:55;17.40;99.90
11559;DHT22;5835;42.930;25.178;2023-08-01T02:53:23;17.40;99.90
11559;DHT22;5835;42.930;25.178;2023-08-01T02:55:50;17.40;99.90
11559;DHT22;5835;42.930;25.178;2023-08-01T02:58:18;17.40;99.90
11559;DHT22;5835;42.930;25.178;2023-08-01T03:00:45;17.30;99.90
11559;DHT22;5835;42.930;25.178;2023-08-01T03:03:13;17.30;99.90
11559;DHT22;5835;42.930;25.178;2023-08-01T03:05:42;17.30;99.90
11559;DHT22;5835;42.930;25.178;2023-08-01T03:08:13;17.30;99.90
11559;DHT22;5835;42.930;25.178;2023-08-01T03:10:41;17.20;99.90
11559;DHT22;5835;42.930;25.178;2023-08-01T03:13:08;17.20;99.90
11559;DHT22;5835;42.930;25.178;2023-08-01T03:15:36;17.20;99.90
11559;DHT22;5835;42.930;25.178;2023-08-01T03:18:04;17.10;99.90
11559;DHT22;5835;42.930;25.178;2023-08-01T03:20:31;17.10;99.90
11559;DHT22;5835;42.930;25.178;2023-08-01T03:23:00;17.10;99.90
11559;DHT22;5835;42.930;25.178;2023-08-01T03:25:28;17.10;99.90
11559;DHT22;5835;42.930;25.178;2023-08-01T03:27:54;17.00;99.90
11559;DHT22;5835;42.930;25.178;2023-08-01T03:30:21;17.00;99.90
11559;DHT22;5835;42.930;25.178;2023-08-01T03:32:49;17.00;99.90
11559;DHT22;5835;42.930;25.178;2023-08-01T03:35:17;17.00;99.90
11559;DHT22;5835;42.930;25.178;2023-08-01T03:37:45;17.00;99.90
11559;DHT22;5835;42.930;25.178;2023-08-01T03:40:14;17.10;99.90
11559;DHT22;5835;42.930;25.178;2023-08-01T03:42:42;17.20;99.90
11559;DHT22;5835;42.930;25.178;2023-08-01T03:45:10;17.20;99.90
11559;DHT22;5835;42.930;25.178;2023-08-01T03:47:38;17.20;99.90
11559;DHT22;5835;42.930;25.178;2023-08-01T03:50:06;17.20;99.90
11559;DHT22;5835;42.930;25.178;2023-08-01T03:52:33;17.10;99.90
11559;DHT22;5835;42.930;25.178;2023-08-01T03:55:02;17.10;99.90
11559;DHT22;5835;42.930;25.178;2023-08-01T03:57:31;17.20;99.90
11559;DHT22;5835;42.930;25.178;2023-08-01T03:59:59;17.10;99.90
11559;DHT22;5835;42.930;25.178;2023-08-01T04:02:28;17.20;99.90
11559;DHT22;5835;42.930;25.178;2023-08-01T04:04:56;17.20;99.90
11559;DHT22;5835;42.930;25.178;2023-08-01T04:07:24;17.20;99.90
11559;DHT22;5835;42.930;25.178;2023-08-01T04:09:51;17.20;99.90
11559;DHT22;5835;42.930;25.178;2023-08-01T04:12:19;17.20;99.90
11559;DHT22;5835;42.930;25.178;2023-08-01T04:14:48;17.30;99.90
11559;DHT22;5835;42.930;25.178;2023-08-01T04:17:16;17.30;99.90
11559;DHT22;5835;42.930;25.178;2023-08-01T04:19:43;17.40;99.90
11559;DHT22;5835;42.930;25.178;2023-08-01T04:22:11;17.50;99.90
11559;DHT22;5835;42.930;25.178;2023-08-01T04:24:38;17.50;99.90
11559;DHT22;5835;42.930;25.178;2023-08-01T04:27:06;17.60;99.90
11559;DHT22;5835;42.930;25.178;2023-08-01T04:29:34;17.60;99.90
11559;DHT22;5835;42.930;25.178;2023-08-01T04:32:03;17.80;99.90
11559;DHT22;5835;42.930;25.178;2023-08-01T04:34:30;17.80;99.90
11559;DHT22;5835;42.930;25.178;2023-08-01T04:36:58;17.90;99.90
11559;DHT22;5835;42.930;25.178;2023-08-01T04:39:25;18.00;99.90
11559;DHT22;5835;42.930;25.178;2023-08-01T04:41:53;18.10;99.90
11559;DHT22;5835;42.930;25.178;2023-08-01T04:44:20;18.20;99.90
11559;DHT22;5835;42.930;25.178;2023-08-01T04:46:48;18.20;99.90
11559;DHT22;5835;42.930;25.178;2023-08-01T04:49:17;18.30;99.90
11559;DHT22;5835;42.930;25.178;2023-08-01T04:51:44;18.40;98.70
11559;DHT22;5835;42.930;25.178;2023-08-01T04:54:12;18.50;18.70
11559;DHT22;5835;42.930;25.178;2023-08-01T04:56:40;18.60;47.60
11559;DHT22;5835;42.930;25.178;2023-08-01T04:59:07;18.60;1.00
11559;DHT22;5835;42.930;25.178;2023-08-01T05:01:35;18.70;1.00
11559;DHT22;5835;42.930;25.178;2023-08-01T05:04:03;18.80;1.00
11559;DHT22;5835;42.930;25.178;2023-08-01T05:06:32;19.00;1.00
11559;DHT22;5835;42.930;25.178;2023-08-01T05:08:59;19.10;1.00
11559;DHT22;5835;42.930;25.178;2023-08-01T05:11:28;19.20;1.00
11559;DHT22;5835;42.930;25.178;2023-08-01T05:13:55;19.40;1.00
11559;DHT22;5835;42.930;25.178;2023-08-01T05:16:22;19.50;1.00
11559;DHT22;5835;42.930;25.178;2023-08-01T05:18:50;19.50;1.00
11559;DHT22;5835;42.930;25.178;2023-08-01T05:21:17;19.60;1.00
11559;DHT22;5835;42.930;25.178;2023-08-01T05:23:46;19.60;1.00
11559;DHT22;5835;42.930;25.178;2023-08-01T05:26:14;19.80;1.00
11559;DHT22;5835;42.930;25.178;2023-08-01T05:28:41;20.00;1.00
11559;DHT22;5835;42.930;25.178;2023-08-01T05:31:08;20.30;99.90
11559;DHT22;5835;42.930;25.178;2023-08-01T05:33:36;20.30;99.90
11559;DHT22;5835;42.930;25.178;2023-08-01T05:36:04;20.40;49.20
11559;DHT22;5835;42.930;25.178;2023-08-01T05:38:32;20.50;99.90
11559;DHT22;5835;42.930;25.178;2023-08-01T05:41:01;20.60;62.10
11559;DHT22;5835;42.930;25.178;2023-08-01T05:43:28;20.70;99.90
11559;DHT22;5835;42.930;25.178;2023-08-01T05:45:56;20.80;99.90
11559;DHT22;5835;42.930;25.178;2023-08-01T05:48:23;21.00;99.90
11559;DHT22;5835;42.930;25.178;2023-08-01T05:50:51;21.20;1.00
11559;DHT22;5835;42.930;25.178;2023-08-01T05:53:19;21.30;1.00
11559;DHT22;5835;42.930;25.178;2023-08-01T05:55:46;21.50;1.00
11559;DHT22;5835;42.930;25.178;2023-08-01T05:58:15;21.60;1.00
11559;DHT22;5835;42.930;25.178;2023-08-01T06:00:43;21.40;99.90
11559;DHT22;5835;42.930;25.178;2023-08-01T06:03:10;21.60;99.90
11559;DHT22;5835;42.930;25.178;2023-08-01T06:05:38;21.70;1.00
11559;DHT22;5835;42.930;25.178;2023-08-01T06:08:07;21.60;99.90
11559;DHT22;5835;42.930;25.178;2023-08-01T06:10:35;21.70;1.00
11559;DHT22;5835;42.930;25.178;2023-08-01T06:13:02;21.90;32.50
11559;DHT22;5835;42.930;25.178;2023-08-01T06:15:31;22.00;16.40
11559;DHT22;5835;42.930;25.178;2023-08-01T06:17:59;22.10;24.60
11559;DHT22;5835;42.930;25.178;2023-08-01T06:20:26;22.30;1.00
11559;DHT22;5835;42.930;25.178;2023-08-01T06:22:54;22.40;1.00
11559;DHT22;5835;42.930;25.178;2023-08-01T06:25:21;22.70;1.00
11559;DHT22;5835;42.930;25.178;2023-08-01T06:27:49;22.90;1.00
11559;DHT22;5835;42.930;25.178;2023-08-01T06:30:17;23.20;1.00
11559;DHT22;5835;42.930;25.178;2023-08-01T06:32:46;23.20;99.90
11559;DHT22;5835;42.930;25.178;2023-08-01T06:35:14;23.20;99.90
11559;DHT22;5835;42.930;25.178;2023-08-01T06:37:41;23.20;99.90
11559;DHT22;5835;42.930;25.178;2023-08-01T06:40:09;23.30;99.90
11559;DHT22;5835;42.930;25.178;2023-08-01T06:42:37;23.40;99.90
11559;DHT22;5835;42.930;25.178;2023-08-01T06:45:05;23.50;99.90
11559;DHT22;5835;42.930;25.178;2023-08-01T06:47:32;23.60;99.90
11559;DHT22;5835;42.930;25.178;2023-08-01T06:50:01;23.50;99.90
11559;DHT22;5835;42.930;25.178;2023-08-01T06:52:29;23.80;99.90
11559;DHT22;5835;42.930;25.178;2023-08-01T06:54:57;23.60;99.90
11559;DHT22;5835;42.930;25.178;2023-08-01T06:57:24;23.70;99.90
11559;DHT22;5835;42.930;25.178;2023-08-01T06:59:52;23.80;99.90
11559;DHT22;5835;42.930;25.178;2023-08-01T07:02:19;23.90;99.90
11559;DHT22;5835;42.930;25.178;2023-08-01T07:04:47;23.90;94.60
11559;DHT22;5835;42.930;25.178;2023-08-01T07:07:16;23.90;82.70
11559;DHT22;5835;42.930;25.178;2023-08-01T07:09:43;24.40;1.90
11559;DHT22;5835;42.930;25.178;2023-08-01T07:12:11;24.60;31.30
11559;DHT22;5835;42.930;25.178;2023-08-01T07:14:39;24.50;12.50
11559;DHT22;5835;42.930;25.178;2023-08-01T07:17:06;24.30;1.00
11559;DHT22;5835;42.930;25.178;2023-08-01T07:19:34;24.50;1.00
11559;DHT22;5835;42.930;25.178;2023-08-01T07:22:02;24.40;1.00
11559;DHT22;5835;42.930;25.178;2023-08-01T07:24:31;24.60;1.00
11559;DHT22;5835;42.930;25.178;2023-08-01T07:27:00;24.60;1.00
11559;DHT22;5835;42.930;25.178;2023-08-01T07:29:27;24.60;1.00
11559;DHT22;5835;42.930;25.178;2023-08-01T07:31:55;24.90;1.00
11559;DHT22;5835;42.930;25.178;2023-08-01T07:34:22;25.00;1.00
11559;DHT22;5835;42.930;25.178;2023-08-01T07:36:50;24.90;1.00
11559;DHT22;5835;42.930;25.178;2023-08-01T07:39:17;25.20;1.00
11559;DHT22;5835;42.930;25.178;2023-08-01T07:41:47;25.40;1.00
11559;DHT22;5835;42.930;25.178;2023-08-01T07:44:14;25.50;1.00
11559;DHT22;5835;42.930;25.178;2023-08-01T07:46:42;25.50;1.00
11559;DHT22;5835;42.930;25.178;2023-08-01T07:49:12;25.50;1.00
11559;DHT22;5835;42.930;25.178;2023-08-01T07:51:40;25.80;1.00
11559;DHT22;5835;42.930;25.178;2023-08-01T07:54:07;25.60;1.00
11559;DHT22;5835;42.930;25.178;2023-08-01T07:56:35;25.50;1.00
11559;DHT22;5835;42.930;25.178;2023-08-01T07:59:04;25.90;1.00
11559;DHT22;5835;42.930;25.178;2023-08-01T08:01:32;25.90;1.00
11559;DHT22;5835;42.930;25.178;2023-08-01T08:04:01;25.90;1.00
11559;DHT22;5835;42.930;25.178;2023-08-01T08:06:29;25.90;1.00
11559;DHT22;5835;42.930;25.178;2023-08-01T08:08:57;26.30;1.00
11559;DHT22;5835;42.930;25.178;2023-08-01T08:11:24;26.30;1.00
11559;DHT22;5835;42.930;25.178;2023-08-01T08:13:52;26.30;1.00
11559;DHT22;5835;42.930;25.178;2023-08-01T08:16:21;26.30;1.00
11559;DHT22;5835;42.930;25.178;2023-08-01T08:18:48;26.50;1.00
11559;DHT22;5835;42.930;25.178;2023-08-01T08:21:16;26.50;1.00
11559;DHT22;5835;42.930;25.178;2023-08-01T08:23:44;26.70;1.00
11559;DHT22;5835;42.930;25.178;2023-08-01T08:26:11;26.80;1.00
11559;DHT22;5835;42.930;25.178;2023-08-01T08:28:39;26.90;1.00
11559;DHT22;5835;42.930;25.178;2023-08-01T08:31:08;26.80;1.00
11559;DHT22;5835;42.930;25.178;2023-08-01T08:33:37;26.70;1.00
11559;DHT22;5835;42.930;25.178;2023-08-01T08:36:04;26.70;1.00
11559;DHT22;5835;42.930;25.178;2023-08-01T08:38:32;26.90;1.00
11559;DHT22;5835;42.930;25.178;2023-08-01T08:41:08;27.10;1.00
11559;DHT22;5835;42.930;25.178;2023-08-01T08:43:37;27.20;1.00
11559;DHT22;5835;42.930;25.178;2023-08-01T08:46:05;27.00;1.00
11559;DHT22;5835;42.930;25.178;2023-08-01T08:48:33;27.40;1.00
11559;DHT22;5835;42.930;25.178;2023-08-01T08:51:03;27.90;1.00
11559;DHT22;5835;42.930;25.178;2023-08-01T08:53:31;28.40;1.00
11559;DHT22;5835;42.930;25.178;2023-08-01T08:56:00;28.10;1.00
11559;DHT22;5835;42.930;25.178;2023-08-01T08:58:29;27.90;1.00
11559;DHT22;5835;42.930;25.178;2023-08-01T09:00:57;28.00;1.00
11559;DHT22;5835;42.930;25.178;2023-08-01T09:03:25;28.30;1.00
11559;DHT22;5835;42.930;25.178;2023-08-01T09:05:59;28.40;1.00
11559;DHT22;5835;42.930;25.178;2023-08-01T09:08:36;28.80;1.00
11559;DHT22;5835;42.930;25.178;2023-08-01T09:11:04;28.60;1.00
11559;DHT22;5835;42.930;25.178;2023-08-01T09:13:31;28.50;1.00
11559;DHT22;5835;42.930;25.178;2023-08-01T09:16:02;28.50;99.90
11559;DHT22;5835;42.930;25.178;2023-08-01T09:18:29;28.60;99.90
11559;DHT22;5835;42.930;25.178;2023-08-01T09:20:58;28.70;99.90
11559;DHT22;5835;42.930;25.178;2023-08-01T09:23:30;28.80;99.90
11559;DHT22;5835;42.930;25.178;2023-08-01T09:25:57;29.10;99.90
11559;DHT22;5835;42.930;25.178;2023-08-01T09:28:25;29.00;99.90
11559;DHT22;5835;42.930;25.178;2023-08-01T09:30:54;29.20;99.90
11559;DHT22;5835;42.930;25.178;2023-08-01T09:33:23;29.00;99.90
11559;DHT22;5835;42.930;25.178;2023-08-01T09:35:52;29.30;99.90
11559;DHT22;5835;42.930;25.178;2023-08-01T09:38:19;30.00;99.90
11559;DHT22;5835;42.930;25.178;2023-08-01T09:40:49;29.80;99.90
11559;DHT22;5835;42.930;25.178;2023-08-01T09:43:16;29.60;99.90
11559;DHT22;5835;42.930;25.178;2023-08-01T09:45:51;30.10;99.90
11559;DHT22;5835;42.930;25.178;2023-08-01T09:48:25;29.80;99.90
11559;DHT22;5835;42.930;25.178;2023-08-01T09:51:07;29.90;99.90
11559;DHT22;5835;42.930;25.178;2023-08-01T09:53:35;30.20;99.90
11559;DHT22;5835;42.930;25.178;2023-08-01T09:56:05;29.80;99.90
11559;DHT22;5835;42.930;25.178;2023-08-01T09:58:34;30.00;99.90
11559;DHT22;5835;42.930;25.178;2023-08-01T10:01:01;29.70;99.90
11559;DHT22;5835;42.930;25.178;2023-08-01T10:03:29;29.90;99.90
11559;DHT22;5835;42.930;25.178;2023-08-01T10:05:58;30.20;99.90
11559;DHT22;5835;42.930;25.178;2023-08-01T10:08:26;30.00;99.90
11559;DHT22;5835;42.930;25.178;2023-08-01T10:10:58;30.50;99.90
11559;DHT22;5835;42.930;25.178;2023-08-01T10:13:27;30.10;99.90
11559;DHT22;5835;42.930;25.178;2023-08-01T10:15:55;30.10;99.90
11559;DHT22;5835;42.930;25.178;2023-08-01T10:18:23;31.30;99.90
11559;DHT22;5835;42.930;25.178;2023-08-01T10:20:51;31.00;99.90
11559;DHT22;5835;42.930;25.178;2023-08-01T10:23:19;30.90;99.90
11559;DHT22;5835;42.930;25.178;2023-08-01T10:25:47;31.60;99.90
11559;DHT22;5835;42.930;25.178;2023-08-01T10:28:14;31.60;99.90
11559;DHT22;5835;42.930;25.178;2023-08-01T10:30:43;31.70;99.90
11559;DHT22;5835;42.930;25.178;2023-08-01T10:33:11;32.50;99.90
11559;DHT22;5835;42.930;25.178;2023-08-01T10:35:40;32.60;99.90
11559;DHT22;5835;42.930;25.178;2023-08-01T10:38:09;31.40;99.90
11559;DHT22;5835;42.930;25.178;2023-08-01T10:40:37;31.60;99.90
11559;DHT22;5835;42.930;25.178;2023-08-01T10:43:05;32.50;99.90
11559;DHT22;5835;42.930;25.178;2023-08-01T10:45:33;32.60;99.90
11559;DHT22;5835;42.930;25.178;2023-08-01T10:48:09;31.70;99.90
11559;DHT22;5835;42.930;25.178;2023-08-01T10:50:37;32.30;99.90
11559;DHT22;5835;42.930;25.178;2023-08-01T10:53:06;32.10;99.90
11559;DHT22;5835;42.930;25.178;2023-08-01T10:55:45;32.90;99.90
11559;DHT22;5835;42.930;25.178;2023-08-01T10:58:13;32.70;99.90
11559;DHT22;5835;42.930;25.178;2023-08-01T11:00:42;33.60;99.90
11559;DHT22;5835;42.930;25.178;2023-08-01T11:03:11;34.10;99.90
11559;DHT22;5835;42.930;25.178;2023-08-01T11:05:39;34.40;99.90
11559;DHT22;5835;42.930;25.178;2023-08-01T11:08:06;34.40;99.90
11559;DHT22;5835;42.930;25.178;2023-08-01T11:10:34;34.80;99.90
11559;DHT22;5835;42.930;25.178;2023-08-01T11:13:02;34.70;99.90
11559;DHT22;5835;42.930;25.178;2023-08-01T11:15:30;34.50;99.90
11559;DHT22;5835;42.930;25.178;2023-08-01T11:17:57;34.50;99.90
11559;DHT22;5835;42.930;25.178;2023-08-01T11:20:26;35.10;99.90
11559;DHT22;5835;42.930;25.178;2023-08-01T11:22:56;35.70;99.90
11559;DHT22;5835;42.930;25.178;2023-08-01T11:25:33;34.10;99.90
11559;DHT22;5835;42.930;25.178;2023-08-01T11:28:06;34.80;99.90
11559;DHT22;5835;42.930;25.178;2023-08-01T11:30:34;34.50;99.90
11559;DHT22;5835;42.930;25.178;2023-08-01T11:33:02;34.30;99.90
11559;DHT22;5835;42.930;25.178;2023-08-01T11:35:32;35.20;99.90
11559;DHT22;5835;42.930;25.178;2023-08-01T11:38:00;35.40;99.90
11559;DHT22;5835;42.930;25.178;2023-08-01T11:40:28;34.40;99.90
11559;DHT22;5835;42.930;25.178;2023-08-01T11:42:57;34.70;99.90
11559;DHT22;5835;42.930;25.178;2023-08-01T11:45:24;33.40;99.90
11559;DHT22;5835;42.930;25.178;2023-08-01T11:47:52;33.00;99.90
11559;DHT22;5835;42.930;25.178;2023-08-01T11:50:24;33.10;99.90
11559;DHT22;5835;42.930;25.178;2023-08-01T11:52:53;33.70;99.90
11559;DHT22;5835;42.930;25.178;2023-08-01T11:55:22;34.10;99.90
11559;DHT22;5835;42.930;25.178;2023-08-01T11:57:54;33.70;99.90
11559;DHT22;5835;42.930;25.178;2023-08-01T12:00:24;33.70;99.90
11559;DHT22;5835;42.930;25.178;2023-08-01T12:02:51;33.10;99.90
11559;DHT22;5835;42.930;25.178;2023-08-01T12:05:23;32.80;99.90
11559;DHT22;5835;42.930;25.178;2023-08-01T12:07:52;32.80;99.90
11559;DHT22;5835;42.930;25.178;2023-08-01T12:10:20;33.20;99.90
11559;DHT22;5835;42.930;25.178;2023-08-01T12:12:48;33.10;99.90
11559;DHT22;5835;42.930;25.178;2023-08-01T12:15:16;33.50;99.90
11559;DHT22;5835;42.930;25.178;2023-08-01T12:17:43;33.90;99.90
11559;DHT22;5835;42.930;25.178;2023-08-01T12:20:11;33.80;99.90
11559;DHT22;5835;42.930;25.178;2023-08-01T12:22:40;34.20;99.90
11559;DHT22;5835;42.930;25.178;2023-08-01T12:25:09;33.70;99.90
11559;DHT22;5835;42.930;25.178;2023-08-01T12:27:37;33.80;99.90
11559;DHT22;5835;42.930;25.178;2023-08-01T12:30:06;34.20;99.90
11559;DHT22;5835;42.930;25.178;2023-08-01T12:32:34;33.90;99.90
11559;DHT22;5835;42.930;25.178;2023-08-01T12:35:04;33.50;99.90
11559;DHT22;5835;42.930;25.178;2023-08-01T12:37:31;33.70;99.90
11559;DHT22;5835;42.930;25.178;2023-08-01T12:39:59;34.30;99.90
11559;DHT22;5835;42.930;25.178;2023-08-01T12:42:28;34.40;99.90
11559;DHT22;5835;42.930;25.178;2023-08-01T12:44:56;34.60;99.90
11559;DHT22;5835;42.930;25.178;2023-08-01T12:47:23;35.30;99.90
11559;DHT22;5835;42.930;25.178;2023-08-01T12:49:51;35.10;99.90
11559;DHT22;5835;42.930;25.178;2023-08-01T12:52:23;34.50;99.90
11559;DHT22;5835;42.930;25.178;2023-08-01T12:54:50;35.10;99.90
11559;DHT22;5835;42.930;25.178;2023-08-01T12:57:20;35.50;99.90
11559;DHT22;5835;42.930;25.178;2023-08-01T12:59:49;36.80;99.90
11559;DHT22;5835;42.930;25.178;2023-08-01T13:02:17;36.60;99.90
11559;DHT22;5835;42.930;25.178;2023-08-01T13:04:45;36.40;99.90
11559;DHT22;5835;42.930;25.178;2023-08-01T13:07:12;36.40;99.90
11559;DHT22;5835;42.930;25.178;2023-08-01T13:09:40;37.40;99.90
11559;DHT22;5835;42.930;25.178;2023-08-01T13:12:08;37.30;99.90
11559;DHT22;5835;42.930;25.178;2023-08-01T13:14:35;35.80;99.90
11559;DHT22;5835;42.930;25.178;2023-08-01T13:17:05;35.60;99.90
11559;DHT22;5835;42.930;25.178;2023-08-01T13:19:33;36.30;99.90
11559;DHT22;5835;42.930;25.178;2023-08-01T13:22:00;36.80;99.90
11559;DHT22;5835;42.930;25.178;2023-08-01T13:24:28;36.10;99.90
11559;DHT22;5835;42.930;25.178;2023-08-01T13:26:56;35.90;99.90
11559;DHT22;5835;42.930;25.178;2023-08-01T13:29:24;36.00;99.90
11559;DHT22;5835;42.930;25.178;2023-08-01T13:31:52;36.90;99.90
11559;DHT22;5835;42.930;25.178;2023-08-01T13:34:21;35.70;99.90
11559;DHT22;5835;42.930;25.178;2023-08-01T13:36:50;35.30;99.90
11559;DHT22;5835;42.930;25.178;2023-08-01T13:39:17;35.90;99.90
11559;DHT22;5835;42.930;25.178;2023-08-01T13:41:45;36.40;99.90
11559;DHT22;5835;42.930;25.178;2023-08-01T13:44:12;37.20;99.90
11559;DHT22;5835;42.930;25.178;2023-08-01T13:46:40;37.30;99.90
11559;DHT22;5835;42.930;25.178;2023-08-01T13:49:07;37.40;99.90
11559;DHT22;5835;42.930;25.178;2023-08-01T13:51:36;37.90;99.90
11559;DHT22;5835;42.930;25.178;2023-08-01T13:54:04;39.00;99.90
11559;DHT22;5835;42.930;25.178;2023-08-01T13:56:31;38.90;99.90
11559;DHT22;5835;42.930;25.178;2023-08-01T13:58:59;39.10;99.90
11559;DHT22;5835;42.930;25.178;2023-08-01T14:01:26;39.30;99.90
11559;DHT22;5835;42.930;25.178;2023-08-01T14:03:53;39.00;99.90
11559;DHT22;5835;42.930;25.178;2023-08-01T14:06:21;39.10;99.90
11559;DHT22;5835;42.930;25.178;2023-08-01T14:08:50;37.60;99.90
11559;DHT22;5835;42.930;25.178;2023-08-01T14:11:17;37.60;99.90
11559;DHT22;5835;42.930;25.178;2023-08-01T14:13:45;38.10;99.90
11559;DHT22;5835;42.930;25.178;2023-08-01T14:16:12;38.80;99.90
11559;DHT22;5835;42.930;25.178;2023-08-01T14:18:40;38.70;99.90
11559;DHT22;5835;42.930;25.178;2023-08-01T14:21:08;38.80;99.90
11559;DHT22;5835;42.930;25.178;2023-08-01T14:23:36;38.30;99.90
11559;DHT22;5835;42.930;25.178;2023-08-01T14:26:05;38.70;99.90
11559;DHT22;5835;42.930;25.178;2023-08-01T14:28:33;38.90;99.90
11559;DHT22;5835;42.930;25.178;2023-08-01T14:31:01;39.30;99.90
11559;DHT22;5835;42.930;25.178;2023-08-01T14:33:29;39.60;99.90
11559;DHT22;5835;42.930;25.178;2023-08-01T14:35:57;39.20;99.90
11559;DHT22;5835;42.930;25.178;2023-08-01T14:38:24;39.00;99.90
11559;DHT22;5835;42.930;25.178;2023-08-01T14:40:52;39.00;99.90
11559;DHT22;5835;42.930;25.178;2023-08-01T14:43:22;39.00;99.90
11559;DHT22;5835;42.930;25.178;2023-08-01T14:45:49;39.30;99.90
11559;DHT22;5835;42.930;25.178;2023-08-01T14:48:17;38.90;99.90
11559;DHT22;5835;42.930;25.178;2023-08-01T14:50:44;38.20;99.90
11559;DHT22;5835;42.930;25.178;2023-08-01T14:53:12;38.40;99.90
11559;DHT22;5835;42.930;25.178;2023-08-01T14:55:39;37.30;99.90
11559;DHT22;5835;42.930;25.178;2023-08-01T14:58:07;37.00;99.90
11559;DHT22;5835;42.930;25.178;2023-08-01T15:00:36;36.60;99.90
11559;DHT22;5835;42.930;25.178;2023-08-01T15:03:04;36.30;99.90
11559;DHT22;5835;42.930;25.178;2023-08-01T15:05:32;35.40;99.90
11559;DHT22;5835;42.930;25.178;2023-08-01T15:07:59;35.20;99.90
11559;DHT22;5835;42.930;25.178;2023-08-01T15:10:31;35.00;99.90
11559;DHT22;5835;42.930;25.178;2023-08-01T15:12:58;35.20;99.90
11559;DHT22;5835;42.930;25.178;2023-08-01T15:15:26;35.90;99.90
11559;DHT22;5835;42.930;25.178;2023-08-01T15:17:55;36.60;99.90
11559;DHT22;5835;42.930;25.178;2023-08-01T15:20:23;36.90;99.90
11559;DHT22;5835;42.930;25.178;2023-08-01T15:22:50;37.10;99.90
11559;DHT22;5835;42.930;25.178;2023-08-01T15:25:18;37.30;99.90
11559;DHT22;5835;42.930;25.178;2023-08-01T15:27:45;37.00;99.90
11559;DHT22;5835;42.930;25.178;2023-08-01T15:30:13;36.30;99.90
11559;DHT22;5835;42.930;25.178;2023-08-01T15:32:40;35.50;99.90
11559;DHT22;5835;42.930;25.178;2023-08-01T15:35:10;35.30;99.90
11559;DHT22;5835;42.930;25.178;2023-08-01T15:37:39;34.50;99.90
11559;DHT22;5835;42.930;25.178;2023-08-01T15:40:07;34.30;99.90